.
WxDataArchive / Data Records for 2014-04-01
2014-03-31 April 2014 2014-04-02

Data Records for Tuesday, 01 April 2014

Time	Temp	Chill	HIndex	Humid	Dewpt	 Wind 	HiWind	WindDir	Rain 	Barom
-----	----	-----	------	-----	-----	------	------	-------	-----	-----
00:00	55.1	55.1	55.1	44	33.6	2	6	90	0.00	29.908 
00:05	55.4	55.4	55.4	43	33.3	2	5	112	0.00	29.908 
00:10	55.7	55.7	55.7	43	33.6	2	6	90	0.00	29.908 
00:15	55.7	55.7	55.7	43	33.6	1	3	112	0.00	29.893 
00:20	55.6	55.6	55.6	44	34.0	2	6	90	0.00	29.893 
00:25	55.4	55.4	55.4	45	34.4	1	3	90	0.00	29.893 
00:30	55.3	55.3	55.3	45	34.3	0	3	90	0.00	29.884 
00:35	55.1	55.1	55.1	46	34.7	0	4	90	0.00	29.884 
00:40	54.8	54.8	54.8	46	34.4	0	4	90	0.00	29.884 
00:45	54.7	54.7	54.7	47	34.9	0	2	112	0.00	29.887 
00:50	54.4	54.4	54.4	47	34.6	0	1	112	0.00	29.887 
00:55	54.1	54.1	54.1	48	34.8	0	0	---	0.00	29.887 
01:00	53.9	53.9	53.9	48	34.7	0	2	112	0.00	29.899 
01:05	53.8	53.8	53.8	48	34.6	0	2	112	0.00	29.899 
01:10	53.6	53.6	53.6	49	34.9	0	1	112	0.00	29.899 
01:15	53.6	53.6	53.6	50	35.4	0	1	112	0.00	29.914 
01:20	53.5	53.5	53.5	51	35.8	0	0	---	0.00	29.914 
01:25	53.3	53.3	53.3	50	35.1	0	2	112	0.00	29.914 
01:30	53.3	53.3	53.3	50	35.1	0	1	112	0.00	29.914 
01:35	53.3	53.3	53.3	52	36.1	0	2	112	0.00	29.914 
01:40	52.9	52.9	52.9	57	38.1	2	5	112	0.00	29.914 
01:45	52.5	52.5	52.5	59	38.6	1	2	112	0.00	29.898 
01:50	52.0	52.0	52.0	60	38.5	0	2	112	0.00	29.898 
01:55	51.6	51.6	51.6	60	38.2	0	2	112	0.00	29.898 
02:00	51.4	51.4	51.4	60	38.0	0	1	112	0.00	29.890 
02:05	51.3	51.3	51.3	60	37.9	0	1	112	0.00	29.890 
02:10	51.1	51.1	51.1	58	36.8	0	2	112	0.00	29.890 
02:15	51.1	51.1	51.1	58	36.8	0	1	112	0.00	29.899 
02:20	51.3	51.3	51.3	58	37.0	0	1	112	0.00	29.899 
02:25	51.1	51.1	51.1	59	37.3	0	0	---	0.00	29.899 
02:30	51.0	51.0	51.0	60	37.6	0	0	---	0.00	29.909 
02:35	51.0	51.0	51.0	59	37.2	0	2	112	0.00	29.909 
02:40	51.1	51.1	51.1	59	37.3	0	1	112	0.00	29.909 
02:45	51.3	51.3	51.3	59	37.5	0	2	112	0.00	29.908 
02:50	51.4	51.4	51.4	60	38.0	0	1	112	0.01	29.908 
02:55	51.3	51.3	51.3	63	39.1	0	1	112	0.00	29.908 
03:00	50.8	50.8	50.8	65	39.5	0	2	112	0.01	29.909 
03:05	50.7	50.7	50.7	67	40.1	0	1	112	0.01	29.909 
03:10	50.4	50.4	50.4	71	41.4	0	2	112	0.01	29.909 
03:15	50.1	50.1	50.1	73	41.8	1	3	112	0.01	29.888 
03:20	49.9	49.9	49.9	75	42.3	1	3	135	0.01	29.888 
03:25	49.8	49.8	49.8	76	42.5	0	1	90	0.00	29.888 
03:30	49.5	49.5	49.5	78	42.9	0	2	90	0.00	29.880 
03:35	49.2	49.2	49.2	80	43.3	0	2	90	0.00	29.880 
03:40	48.9	48.9	48.9	81	43.3	1	3	90	0.00	29.880 
03:45	48.8	48.8	48.8	81	43.2	0	2	112	0.00	29.866 
03:50	48.8	48.8	48.8	81	43.2	1	3	90	0.00	29.866 
03:55	48.9	48.9	48.9	81	43.3	1	5	90	0.00	29.866 
04:00	49.1	49.1	49.1	79	42.9	2	4	90	0.00	29.839 
04:05	49.5	49.5	49.5	76	42.3	3	7	90	0.00	29.839 
04:10	49.9	49.9	49.9	74	41.9	2	6	135	0.00	29.839 
04:15	50.4	50.4	50.4	73	42.1	2	6	112	0.00	29.826 
04:20	50.5	50.5	50.5	73	42.2	2	5	112	0.00	29.826 
04:25	50.8	50.8	50.8	71	41.7	2	10	90	0.00	29.826 
04:30	51.1	51.1	51.1	69	41.3	3	6	90	0.00	29.813 
04:35	51.4	51.4	51.4	69	41.6	2	5	90	0.00	29.813 
04:40	51.4	51.4	51.4	69	41.6	2	5	90	0.00	29.813 
04:45	51.4	51.4	51.4	68	41.2	2	6	90	0.00	29.801 
04:50	51.4	51.4	51.4	68	41.2	1	4	112	0.00	29.801 
04:55	51.3	51.3	51.3	68	41.1	2	6	90	0.00	29.801 
05:00	51.0	51.0	51.0	68	40.8	2	6	112	0.00	29.796 
05:05	50.7	50.7	50.7	68	40.5	3	6	90	0.00	29.796 
05:10	50.4	50.4	50.4	69	40.6	2	6	90	0.00	29.796 
05:15	50.1	50.1	50.1	69	40.3	3	6	90	0.00	29.797 
05:20	49.8	49.8	49.8	70	40.4	2	4	90	0.00	29.797 
05:25	49.6	49.6	49.6	70	40.2	2	5	90	0.00	29.797 
05:30	49.6	49.6	49.6	69	39.9	2	5	112	0.00	29.799 
05:35	49.8	49.8	49.8	68	39.7	1	4	90	0.00	29.799 
05:40	49.8	49.8	49.8	67	39.3	1	3	90	0.00	29.799 
05:45	49.9	49.9	49.9	67	39.4	1	5	90	0.00	29.793 
05:50	49.9	49.9	49.9	66	39.0	2	6	112	0.00	29.793 
05:55	49.9	49.9	49.9	66	39.0	1	4	112	0.00	29.793 
06:00	49.9	49.9	49.9	66	39.0	1	3	112	0.00	29.788 
06:05	49.9	49.9	49.9	65	38.6	2	5	90	0.00	29.788 
06:10	49.9	49.9	49.9	65	38.6	1	3	112	0.00	29.788 
06:15	50.1	50.1	50.1	65	38.8	2	6	90	0.00	29.781 
06:20	50.1	50.1	50.1	64	38.4	1	3	112	0.00	29.781 
06:25	50.1	50.1	50.1	64	38.4	1	3	90	0.00	29.781 
06:30	50.1	50.1	50.1	63	38.0	1	3	90	0.00	29.776 
06:35	50.2	50.2	50.2	63	38.1	1	4	90	0.00	29.776 
06:40	50.4	50.4	50.4	63	38.3	1	3	112	0.00	29.776 
06:45	50.5	50.5	50.5	62	38.0	1	4	112	0.00	29.771 
06:50	50.5	50.5	50.5	62	38.0	1	5	90	0.00	29.771 
06:55	50.5	50.5	50.5	61	37.6	2	4	112	0.00	29.771 
07:00	50.5	50.5	50.5	61	37.6	2	4	90	0.00	29.771 
07:05	50.4	50.4	50.4	61	37.5	1	5	112	0.00	29.771 
07:10	50.2	50.2	50.2	62	37.7	1	3	112	0.00	29.771 
07:15	49.9	49.9	49.9	62	37.4	1	3	90	0.00	29.768 
07:20	49.8	49.8	49.8	62	37.3	1	2	90	0.00	29.768 
07:25	49.6	49.6	49.6	62	37.1	1	4	90	0.00	29.768 
07:30	49.8	49.8	49.8	62	37.3	1	4	112	0.00	29.775 
07:35	49.8	49.8	49.8	62	37.3	2	4	90	0.00	29.775 
07:40	49.9	49.9	49.9	62	37.4	1	3	90	0.00	29.775 
07:45	49.9	49.9	49.9	62	37.4	1	4	112	0.00	29.777 
07:50	49.8	49.8	49.8	63	37.7	1	4	112	0.00	29.777 
07:55	49.8	49.8	49.8	63	37.7	1	3	112	0.00	29.777 
08:00	49.9	49.9	49.9	63	37.8	2	6	112	0.00	29.773 
08:05	50.2	50.2	50.2	63	38.1	1	6	90	0.00	29.773 
08:10	50.5	50.5	50.5	62	38.0	1	3	90	0.00	29.773 
08:15	51.0	51.0	51.0	61	38.0	2	4	90	0.00	29.776 
08:20	51.4	51.4	51.4	61	38.4	1	4	90	0.00	29.776 
08:25	51.7	51.7	51.7	61	38.7	1	4	90	0.00	29.776 
08:30	52.0	52.0	52.0	60	38.5	1	5	90	0.00	29.772 
08:35	52.2	52.2	52.2	60	38.7	1	5	90	0.00	29.772 
08:40	52.5	52.5	52.5	60	39.0	1	4	90	0.00	29.772 
08:45	52.9	52.9	52.9	60	39.4	1	5	68	0.00	29.777 
08:50	53.2	53.2	53.2	59	39.2	1	6	112	0.00	29.777 
08:55	53.5	53.5	53.5	60	40.0	1	3	315	0.00	29.777 
09:00	53.8	53.8	53.8	59	39.8	1	5	270	0.00	29.778 
09:05	54.1	54.1	54.1	59	40.1	1	5	90	0.00	29.778 
09:10	54.2	54.2	54.2	59	40.2	1	9	248	0.00	29.778 
09:15	54.4	54.4	54.4	59	40.4	2	7	248	0.00	29.776 
09:20	54.7	54.7	54.7	59	40.7	2	6	248	0.00	29.776 
09:25	54.8	54.8	54.8	59	40.7	1	4	248	0.00	29.776 
09:30	55.3	55.3	55.3	59	41.2	2	5	248	0.00	29.773 
09:35	55.6	55.6	55.6	60	41.9	2	6	248	0.00	29.773 
09:40	55.9	55.9	55.9	60	42.2	2	11	248	0.00	29.773 
09:45	56.2	56.2	56.2	59	42.1	3	7	248	0.00	29.777 
09:50	56.3	56.3	56.3	60	42.6	3	10	248	0.00	29.777 
09:55	56.3	56.3	56.3	61	43.0	3	9	248	0.00	29.777 
10:00	56.3	56.3	56.3	60	42.6	5	13	248	0.00	29.779 
10:05	56.2	56.2	56.2	61	42.9	5	16	248	0.00	29.779 
10:10	55.3	55.3	55.3	61	42.1	4	11	270	0.00	29.779 
10:15	54.5	54.5	54.5	61	41.3	4	11	248	0.00	29.797 
10:20	54.4	54.4	54.4	59	40.4	3	11	248	0.00	29.797 
10:25	54.1	54.1	54.1	57	39.2	5	11	270	0.00	29.797 
10:30	53.9	53.9	53.9	56	38.6	4	11	270	0.00	29.800 
10:35	53.8	53.8	53.8	53	37.1	5	11	270	0.00	29.800 
10:40	53.8	53.8	53.8	51	36.1	4	12	248	0.00	29.800 
10:45	53.8	53.8	53.8	49	35.1	4	11	270	0.00	29.803 
10:50	53.6	53.6	53.6	49	34.9	4	11	248	0.00	29.803 
10:55	53.6	53.6	53.6	48	34.4	4	13	270	0.00	29.803 
11:00	53.3	53.3	53.3	46	33.1	5	10	270	0.00	29.809 
11:05	52.8	52.8	52.8	47	33.1	6	14	270	0.00	29.809 
11:10	52.6	52.6	52.6	48	33.5	5	12	248	0.00	29.809 
11:15	52.9	52.9	52.9	47	33.2	5	14	270	0.00	29.813 
11:20	52.5	52.5	52.5	47	32.9	5	14	248	0.00	29.813 
11:25	52.0	52.0	52.0	47	32.4	6	14	270	0.00	29.813 
11:30	51.7	51.7	51.7	47	32.1	6	14	248	0.00	29.815 
11:35	51.9	51.9	51.9	49	33.3	4	12	248	0.00	29.815 
11:40	52.0	52.0	52.0	48	32.9	5	11	270	0.00	29.815 
11:45	52.0	52.0	52.0	48	32.9	5	14	270	0.00	29.813 
11:50	52.3	52.3	52.3	48	33.2	3	8	270	0.00	29.813 
11:55	52.6	52.6	52.6	46	32.4	3	8	270	0.00	29.813 
12:00	52.3	52.3	52.3	47	32.7	5	13	248	0.00	29.823 
12:05	52.3	52.3	52.3	47	32.7	5	12	248	0.00	29.823 
12:10	52.5	52.5	52.5	46	32.3	4	12	248	0.00	29.823 
12:15	52.5	52.5	52.5	45	31.8	6	15	248	0.00	29.827 
12:20	52.3	52.3	52.3	46	32.1	5	11	248	0.00	29.827 
12:25	52.5	52.5	52.5	45	31.8	4	15	248	0.00	29.827 
12:30	52.3	52.3	52.3	44	31.0	6	14	270	0.00	29.829 
12:35	52.3	52.3	52.3	47	32.7	5	13	270	0.00	29.829 
12:40	52.5	52.5	52.5	46	32.3	5	10	270	0.00	29.829 
12:45	52.5	52.5	52.5	46	32.3	5	11	270	0.00	29.827 
12:50	52.3	52.3	52.3	45	31.6	6	13	270	0.00	29.827 
12:55	52.6	52.6	52.6	45	31.9	4	10	270	0.00	29.827 
13:00	52.6	52.6	52.6	44	31.3	6	12	248	0.00	29.825 
13:05	52.9	52.9	52.9	43	31.0	5	11	270	0.00	29.825 
13:10	52.8	52.8	52.8	46	32.6	5	11	270	0.00	29.825 
13:15	52.9	52.9	52.9	45	32.1	5	11	248	0.00	29.832 
13:20	52.9	52.9	52.9	46	32.7	4	11	270	0.00	29.832 
13:25	52.9	52.9	52.9	45	32.1	5	11	270	0.00	29.832 
13:30	52.9	52.9	52.9	46	32.7	4	9	270	0.00	29.839 
13:35	52.9	52.9	52.9	45	32.1	6	12	270	0.00	29.839 
13:40	53.1	53.1	53.1	46	32.9	4	12	270	0.00	29.839 
13:45	53.6	53.6	53.6	45	32.8	3	9	270	0.00	29.845 
13:50	53.9	53.9	53.9	45	33.1	4	9	248	0.00	29.845 
13:55	53.5	53.5	53.5	44	32.1	5	11	270	0.00	29.845 
14:00	52.9	52.9	52.9	45	32.1	5	10	270	0.00	29.845 
14:05	52.8	52.8	52.8	45	32.1	5	12	270	0.00	29.845 
14:10	52.9	52.9	52.9	46	32.7	4	13	270	0.00	29.845 
14:15	52.8	52.8	52.8	43	30.9	6	13	270	0.00	29.851 
14:20	52.3	52.3	52.3	44	31.0	5	9	270	0.00	29.851 
14:25	52.2	52.2	52.2	44	31.0	5	12	270	0.00	29.851 
14:30	52.3	52.3	52.3	44	31.0	4	10	270	0.00	29.860 
14:35	51.7	51.7	51.7	44	30.5	6	12	248	0.00	29.860 
14:40	51.7	51.7	51.7	45	31.1	5	11	270	0.00	29.860 
14:45	51.4	51.4	51.4	46	31.3	5	11	270	0.00	29.863 
14:50	51.6	51.6	51.6	47	32.0	4	9	270	0.00	29.863 
14:55	51.6	51.6	51.6	46	31.5	5	13	270	0.00	29.863 
15:00	51.4	51.4	51.4	46	31.3	5	10	270	0.00	29.870 
15:05	51.3	51.3	51.3	46	31.2	5	10	270	0.00	29.870 
15:10	51.0	51.0	51.0	47	31.5	7	15	270	0.00	29.870 
15:15	51.1	51.1	51.1	48	32.1	5	11	270	0.00	29.880 
15:20	51.4	51.4	51.4	47	31.9	5	13	270	0.00	29.880 
15:25	51.9	51.9	51.9	46	31.8	4	13	248	0.00	29.880 
15:30	52.5	52.5	52.5	47	32.9	3	6	270	0.00	29.881 
15:35	52.5	52.5	52.5	44	31.2	5	12	270	0.00	29.881 
15:40	51.9	51.9	51.9	46	31.8	6	11	270	0.00	29.881 
15:45	52.2	52.2	52.2	44	31.0	5	11	248	0.00	29.886 
15:50	51.7	51.7	51.7	44	30.5	6	14	270	0.00	29.886 
15:55	51.7	51.7	51.7	45	31.1	6	11	270	0.00	29.886 
16:00	52.0	52.0	52.0	46	31.9	5	10	270	0.00	29.886 
16:05	52.0	52.0	52.0	43	30.2	7	13	270	0.00	29.886 
16:10	52.0	52.0	52.0	44	30.8	5	13	248	0.00	29.886 
16:15	52.2	52.2	52.2	44	31.0	5	15	270	0.00	29.892 
16:20	52.0	52.0	52.0	45	31.3	5	15	270	0.00	29.892 
16:25	52.3	52.3	52.3	44	31.0	4	10	270	0.00	29.892 
16:30	52.5	52.5	52.5	44	31.2	5	13	248	0.00	29.887 
16:35	52.6	52.6	52.6	43	30.7	5	11	270	0.00	29.887 
16:40	52.6	52.6	52.6	44	31.3	5	9	248	0.00	29.887 
16:45	52.5	52.5	52.5	44	31.2	5	11	270	0.00	29.892 
16:50	52.3	52.3	52.3	45	31.6	5	12	270	0.00	29.892 
16:55	52.0	52.0	52.0	45	31.3	5	14	270	0.00	29.892 
17:00	52.0	52.0	52.0	45	31.3	6	15	248	0.00	29.894 
17:05	52.3	52.3	52.3	46	32.1	4	11	270	0.00	29.894 
17:10	52.2	52.2	52.2	45	31.5	5	14	248	0.00	29.894 
17:15	52.5	52.5	52.5	46	32.3	4	10	270	0.00	29.896 
17:20	52.6	52.6	52.6	45	31.9	3	10	248	0.00	29.896 
17:25	52.5	52.5	52.5	45	31.8	4	11	248	0.00	29.896 
17:30	52.5	52.5	52.5	45	31.8	4	13	270	0.00	29.897 
17:35	52.5	52.5	52.5	45	31.8	6	13	270	0.00	29.897 
17:40	52.5	52.5	52.5	46	32.3	5	11	248	0.00	29.897 
17:45	52.6	52.6	52.6	45	31.9	5	12	270	0.00	29.902 
17:50	52.5	52.5	52.5	45	31.8	6	14	270	0.00	29.902 
17:55	52.3	52.3	52.3	45	31.6	5	11	248	0.00	29.902 
18:00	52.3	52.3	52.3	46	32.1	4	11	248	0.00	29.910 
18:05	52.3	52.3	52.3	46	32.1	4	11	248	0.00	29.910 
18:10	52.5	52.5	52.5	46	32.3	3	7	270	0.00	29.910 
18:15	52.5	52.5	52.5	45	31.8	5	13	270	0.00	29.913 
18:20	52.5	52.5	52.5	45	31.8	5	10	270	0.00	29.913 
18:25	52.3	52.3	52.3	46	32.1	5	10	270	0.00	29.913 
18:30	52.3	52.3	52.3	46	32.1	4	10	270	0.00	29.923 
18:35	52.2	52.2	52.2	45	31.5	4	10	270	0.00	29.923 
18:40	52.0	52.0	52.0	46	31.9	4	10	248	0.00	29.923 
18:45	51.9	51.9	51.9	47	32.3	3	8	248	0.00	29.925 
18:50	51.9	51.9	51.9	47	32.3	3	7	270	0.00	29.925 
18:55	51.7	51.7	51.7	46	31.6	4	11	270	0.00	29.925 
19:00	51.7	51.7	51.7	47	32.1	3	9	270	0.00	29.942 
19:05	51.7	51.7	51.7	46	31.6	2	6	248	0.00	29.942 
19:10	51.6	51.6	51.6	47	32.0	3	9	270	0.00	29.942 
19:15	51.4	51.4	51.4	47	31.9	3	8	248	0.00	29.944 
19:20	51.4	51.4	51.4	47	31.9	4	11	248	0.00	29.944 
19:25	51.3	51.3	51.3	47	31.8	3	10	248	0.00	29.944 
19:30	51.3	51.3	51.3	47	31.8	3	7	248	0.00	29.953 
19:35	51.3	51.3	51.3	48	32.3	3	6	248	0.00	29.953 
19:40	51.1	51.1	51.1	48	32.1	2	5	248	0.00	29.953 
19:45	51.0	51.0	51.0	48	32.0	3	10	270	0.00	29.959 
19:50	50.8	50.8	50.8	48	31.8	2	6	248	0.00	29.959 
19:55	50.7	50.7	50.7	48	31.7	3	9	248	0.00	29.959 
20:00	50.5	50.5	50.5	49	32.1	3	7	270	0.00	29.963 
20:05	50.4	50.4	50.4	49	32.0	2	5	270	0.00	29.963 
20:10	50.2	50.2	50.2	49	31.8	3	7	270	0.00	29.963 
20:15	50.2	50.2	50.2	49	31.8	1	3	248	0.00	29.963 
20:20	49.9	49.9	49.9	50	32.0	1	4	248	0.00	29.963 
20:25	49.9	49.9	49.9	50	32.0	2	6	248	0.00	29.963 
20:30	49.8	49.8	49.8	50	31.9	1	4	248	0.00	29.971 
20:35	49.8	49.8	49.8	51	32.4	2	5	248	0.00	29.971 
20:40	49.6	49.6	49.6	51	32.2	1	5	270	0.00	29.971 
20:45	49.5	49.5	49.5	51	32.1	1	3	270	0.00	29.973 
20:50	49.2	49.2	49.2	52	32.3	0	2	270	0.00	29.973 
20:55	49.1	49.1	49.1	52	32.2	1	2	270	0.00	29.973 
21:00	49.1	49.1	49.1	52	32.2	1	3	270	0.00	29.981 
21:05	49.1	49.1	49.1	52	32.2	2	6	248	0.00	29.981 
21:10	49.1	49.1	49.1	52	32.2	1	3	270	0.00	29.981 
21:15	49.1	49.1	49.1	52	32.2	1	3	270	0.00	29.985 
21:20	48.9	48.9	48.9	52	32.1	1	6	248	0.00	29.985 
21:25	48.9	48.9	48.9	53	32.5	1	4	248	0.00	29.985 
21:30	48.8	48.8	48.8	53	32.4	1	3	248	0.00	29.997 
21:35	48.8	48.8	48.8	53	32.4	1	3	248	0.00	29.997 
21:40	48.8	48.8	48.8	53	32.4	2	4	248	0.00	29.997 
21:45	48.8	48.8	48.8	53	32.4	1	4	248	0.00	30.004 
21:50	48.6	48.6	48.6	54	32.7	1	3	248	0.00	30.004 
21:55	48.5	48.5	48.5	54	32.6	2	4	270	0.00	30.004 
22:00	48.5	48.5	48.5	54	32.6	1	4	248	0.00	30.020 
22:05	48.3	48.3	48.3	54	32.4	1	4	248	0.00	30.020 
22:10	48.3	48.3	48.3	54	32.4	1	3	248	0.00	30.020 
22:15	48.3	48.3	48.3	55	32.9	1	3	248	0.00	30.035 
22:20	48.2	48.2	48.2	55	32.8	1	3	248	0.00	30.035 
22:25	48.2	48.2	48.2	55	32.8	1	3	248	0.00	30.035 
22:30	48.2	48.2	48.2	55	32.8	1	3	248	0.00	30.034 
22:35	48.2	48.2	48.2	54	32.3	1	3	248	0.00	30.034 
22:40	48.2	48.2	48.2	54	32.3	1	4	270	0.00	30.034 
22:45	48.2	48.2	48.2	55	32.8	1	3	248	0.00	30.032 
22:50	48.2	48.2	48.2	55	32.8	2	5	270	0.00	30.032 
22:55	48.2	48.2	48.2	55	32.8	2	5	270	0.00	30.032 
23:00	48.2	48.2	48.2	55	32.8	2	4	270	0.00	30.037 
23:05	48.0	48.0	48.0	55	32.6	1	4	270	0.00	30.037 
23:10	47.9	47.9	47.9	55	32.5	1	3	270	0.00	30.037 
23:15	47.7	47.7	47.7	56	32.8	1	3	270	0.00	30.038 
23:20	47.6	47.6	47.6	56	32.7	1	3	270	0.00	30.038 
23:25	47.6	47.6	47.6	55	32.2	2	4	270	0.00	30.038 
23:30	47.6	47.6	47.6	54	31.8	2	5	270	0.00	30.046 
23:35	47.6	47.6	47.6	53	31.3	2	5	270	0.00	30.046 
23:40	47.6	47.6	47.6	52	30.9	3	7	270	0.00	30.046 
23:45	47.6	47.6	47.6	52	30.9	2	10	270	0.00	30.043 
23:50	47.4	47.4	47.4	52	30.7	1	4	270	0.00	30.043 
23:55	47.3	47.3	47.3	51	30.1	2	4	270	0.00	30.043 

CoCoRaHS
IN-AL-39
A2 Web Hosting
Creative Commons License
GoDaddy
search engine by freefind advanced

loaded 2018-11-20 09:14:46 • last modified 2010-11-18 10:43:29
Privacy PolicyDisclaimer
• wx.awcolley.com is powered by PmWiki v.2002016 •
• all content (unless otherwise noted) © 2018 A W Colley